Time;durP1;ratioP1;P1;durP2;ratioP2;P2;SDS_P1;SDS_P2;PMS_P1;PMS_P2;Temp;Humidity;BMP_temperature;BMP_pressure;BME280_temperature;BME280_humidity;BME280_pressure;Samples;Min_cycle;Max_cycle;Signal;HPM_P1;HPM_P2
2022/06/27 00:01:13;;;;;;;5.55;4.30;;;;;;;22.02;53.50;98597.41;1696563;84;25733;-60
2022/06/27 00:03:39;;;;;;;15.03;4.12;;;;;;;22.01;53.84;98599.38;1696267;84;25972;-60
2022/06/27 00:06:05;;;;;;;8.33;4.70;;;;;;;21.99;53.70;98601.76;1696238;84;25729;-60
2022/06/27 00:08:31;;;;;;;6.65;4.42;;;;;;;21.97;53.78;98594.98;1696495;84;28200;-59
2022/06/27 00:10:57;;;;;;;5.05;4.28;;;;;;;21.98;53.65;98593.19;1696429;84;25890;-60
2022/06/27 00:13:23;;;;;;;6.50;4.60;;;;;;;21.96;53.84;98596.96;1696646;84;25669;-60
2022/06/27 00:15:49;;;;;;;8.00;4.42;;;;;;;21.92;54.04;98596.16;1696316;84;25743;-59
2022/06/27 00:18:15;;;;;;;5.83;4.47;;;;;;;21.88;53.99;98596.75;1696292;84;25654;-60
2022/06/27 00:20:41;;;;;;;5.78;4.25;;;;;;;21.86;54.81;98601.33;1696301;84;27509;-60
2022/06/27 00:23:08;;;;;;;4.97;4.00;;;;;;;21.83;54.23;98597.11;1696332;84;25589;-60
2022/06/27 00:25:35;;;;;;;5.90;4.53;;;;;;;21.82;54.53;98596.33;1696088;84;25452;-60
2022/06/27 00:28:01;;;;;;;6.85;4.37;;;;;;;21.83;54.36;98599.91;1696214;84;26586;-60
2022/06/27 00:30:28;;;;;;;6.25;4.60;;;;;;;21.81;54.24;98598.90;1696373;84;25680;-60
2022/06/27 00:32:54;;;;;;;7.12;4.50;;;;;;;21.79;54.38;98600.69;1696540;84;28244;-59
2022/06/27 00:35:21;;;;;;;7.10;4.78;;;;;;;21.75;54.52;98608.80;1696090;84;25581;-60
2022/06/27 00:37:47;;;;;;;4.78;4.28;;;;;;;21.67;54.97;98603.78;1696476;84;25507;-60
2022/06/27 00:40:14;;;;;;;5.50;4.60;;;;;;;21.65;54.73;98600.60;1696632;84;25594;-60
2022/06/27 00:42:40;;;;;;;7.60;4.60;;;;;;;21.64;54.92;98601.19;1696340;84;25481;-60
2022/06/27 00:45:09;;;;;;;7.20;4.72;;;;;;;21.64;54.76;98603.17;1696087;84;27508;-60
2022/06/27 00:47:34;;;;;;;5.55;4.40;;;;;;;21.65;54.91;98606.18;1696031;84;25678;-59
2022/06/27 00:50:01;;;;;;;7.12;4.22;;;;;;;21.63;54.83;98598.79;1696295;84;25740;-60
2022/06/27 00:52:27;;;;;;;6.15;4.33;;;;;;;21.59;55.04;98597.98;1696516;84;25766;-60
2022/06/27 00:54:54;;;;;;;6.12;3.87;;;;;;;21.56;55.35;98598.95;1696246;84;25615;-60
2022/06/27 00:57:20;;;;;;;6.72;3.95;;;;;;;21.51;55.58;98597.95;1696447;84;28251;-60
2022/06/27 00:59:47;;;;;;;5.65;4.28;;;;;;;21.44;55.54;98593.13;1696448;84;25594;-60
2022/06/27 01:02:14;;;;;;;7.45;4.33;;;;;;;21.43;55.35;98597.11;1696622;84;25658;-60
2022/06/27 01:04:40;;;;;;;6.83;4.37;;;;;;;21.40;55.45;98596.48;1696455;84;25746;-60
2022/06/27 01:07:09;;;;;;;5.58;4.58;;;;;;;21.40;55.68;98599.28;1696513;84;25487;-60
2022/06/27 01:09:35;;;;;;;7.08;4.33;;;;;;;21.38;56.07;98599.44;1696201;84;27434;-59
2022/06/27 01:12:04;;;;;;;5.37;4.47;;;;;;;21.34;56.06;98598.63;1696320;84;25772;-60
2022/06/27 01:14:30;;;;;;;6.75;4.47;;;;;;;21.30;55.99;98595.22;1696183;84;25677;-60
2022/06/27 01:16:58;;;;;;;8.45;4.87;;;;;;;21.29;56.09;98603.97;1695881;84;25829;-60
2022/06/27 01:19:25;;;;;;;5.85;4.90;;;;;;;21.26;55.97;98604.74;1696086;84;25613;-59
2022/06/27 01:21:54;;;;;;;7.22;4.90;;;;;;;21.17;56.29;98596.14;1696152;84;27533;-60
2022/06/27 01:24:23;;;;;;;6.53;4.67;;;;;;;21.10;56.77;98593.28;1696595;84;25602;-61
2022/06/27 01:26:50;;;;;;;5.05;4.10;;;;;;;21.03;56.87;98599.63;1696521;84;25621;-60
2022/06/27 01:29:19;;;;;;;8.15;4.70;;;;;;;20.99;57.09;98599.39;1696335;84;25908;-60
2022/06/27 01:31:46;;;;;;;6.15;4.83;;;;;;;20.97;56.84;98601.75;1696318;84;25499;-61
2022/06/27 01:34:13;;;;;;;5.92;4.35;;;;;;;20.99;56.67;98599.39;1696632;84;27437;-60
2022/06/27 01:36:42;;;;;;;5.47;4.95;;;;;;;20.93;57.44;98598.34;1696429;84;25646;-60
2022/06/27 01:39:16;;;;;;;7.58;5.22;;;;;;;20.83;58.40;98605.18;1696288;84;25455;-59
2022/06/27 01:41:55;;;;;;;4.80;4.10;;;;;;;20.75;58.13;98606.52;1696308;84;25703;-59
2022/06/27 01:44:25;;;;;;;5.70;4.95;;;;;;;20.73;58.30;98595.56;1696067;84;25715;-60
2022/06/27 01:47:05;;;;;;;5.30;4.15;;;;;;;20.71;58.17;98602.10;1696472;84;28175;-60
2022/06/27 01:49:35;;;;;;;6.05;4.67;;;;;;;20.71;58.31;98607.67;1696144;84;25764;-60
2022/06/27 01:52:04;;;;;;;5.62;4.53;;;;;;;20.66;58.40;98597.09;1696677;84;25498;-60
2022/06/27 01:54:31;;;;;;;6.50;4.12;;;;;;;20.65;59.08;98598.87;1696481;84;26345;-61
2022/06/27 01:56:57;;;;;;;6.47;4.83;;;;;;;20.59;58.87;98605.39;1696329;84;25480;-60
2022/06/27 01:59:27;;;;;;;6.25;4.17;;;;;;;20.54;59.59;98598.19;1696456;84;27403;-60
2022/06/27 02:01:55;;;;;;;7.12;4.67;;;;;;;20.52;59.16;98601.16;1696607;83;25672;-60
2022/06/27 02:04:22;;;;;;;7.03;4.75;;;;;;;20.51;59.33;98602.32;1695975;84;25723;-60
2022/06/27 02:06:49;;;;;;;6.97;4.45;;;;;;;20.47;59.65;98600.91;1696064;84;26246;-60
2022/06/27 02:09:18;;;;;;;6.97;4.92;;;;;;;20.42;59.74;98600.66;1696446;84;25526;-60
2022/06/27 02:11:49;;;;;;;8.73;5.25;;;;;;;20.35;59.53;98597.01;1696302;84;27476;-60
2022/06/27 02:14:15;;;;;;;8.88;5.03;;;;;;;20.33;59.91;98604.34;1696039;84;25719;-61
2022/06/27 02:16:43;;;;;;;6.95;4.90;;;;;;;20.31;59.61;98615.05;1696015;84;25636;-60
2022/06/27 02:19:13;;;;;;;9.95;5.15;;;;;;;20.26;59.99;98609.84;1689980;83;26963;-61
2022/06/27 02:21:41;;;;;;;5.53;4.47;;;;;;;20.18;60.37;98615.30;1689991;84;25719;-60
2022/06/27 02:24:08;;;;;;;6.95;4.97;;;;;;;20.11;61.04;98614.41;1689903;84;27387;-60
2022/06/27 02:26:35;;;;;;;7.40;4.65;;;;;;;20.06;61.69;98620.53;1689666;84;25997;-60
2022/06/27 02:29:02;;;;;;;7.40;4.87;;;;;;;20.05;61.28;98616.16;1689938;84;25508;-60
2022/06/27 02:31:29;;;;;;;8.98;4.58;;;;;;;20.01;61.14;98615.88;1689779;84;25794;-60
2022/06/27 02:33:56;;;;;;;6.15;5.00;;;;;;;20.00;61.31;98622.63;1689878;84;25558;-60
2022/06/27 02:36:29;;;;;;;6.42;4.95;;;;;;;20.00;61.23;98624.02;1689800;84;28433;-60
2022/06/27 02:38:59;;;;;;;5.12;4.53;;;;;;;19.99;61.02;98615.45;1689763;84;25448;-60
2022/06/27 02:41:29;;;;;;;7.28;5.10;;;;;;;19.96;61.33;98616.20;1690081;84;25957;-60
2022/06/27 02:44:04;;;;;;;7.92;5.15;;;;;;;19.95;61.28;98620.98;1689630;84;25703;-61
2022/06/27 02:46:30;;;;;;;6.00;4.78;;;;;;;19.93;61.59;98617.19;1689943;83;25577;-61
2022/06/27 02:48:57;;;;;;;8.53;5.42;;;;;;;19.92;61.69;98618.95;1689820;84;28205;-60
2022/06/27 02:51:27;;;;;;;6.20;5.50;;;;;;;19.90;61.55;98617.13;1667944;84;25718;-61
2022/06/27 02:54:02;;;;;;;6.42;5.37;;;;;;;19.90;62.01;98619.33;1689615;84;29988;-61
2022/06/27 02:56:29;;;;;;;6.85;4.97;;;;;;;19.88;62.10;98625.05;1689921;84;26430;-61
2022/06/27 02:59:04;;;;;;;6.95;5.28;;;;;;;19.84;62.29;98616.67;1689825;84;25697;-61
2022/06/27 03:01:32;;;;;;;7.85;5.12;;;;;;;19.75;62.61;98618.94;1690143;84;27452;-60
2022/06/27 03:04:00;;;;;;;6.35;5.15;;;;;;;19.75;62.60;98620.33;1689737;84;25698;-61
2022/06/27 03:06:27;;;;;;;7.92;5.10;;;;;;;19.74;63.05;98618.70;1690090;84;25626;-61
2022/06/27 03:08:53;;;;;;;9.58;5.50;;;;;;;19.70;63.08;98617.28;1689734;84;26544;-61
2022/06/27 03:11:22;;;;;;;6.78;5.05;;;;;;;19.74;62.92;98615.92;1690085;84;25653;-61
2022/06/27 03:13:51;;;;;;;5.70;5.17;;;;;;;19.77;62.90;98620.15;1689807;84;27320;-61
2022/06/27 03:16:21;;;;;;;6.78;5.40;;;;;;;19.84;63.01;98626.98;1689728;84;25684;-61
2022/06/27 03:18:49;;;;;;;5.95;5.30;;;;;;;19.87;63.01;98628.44;1689875;84;25767;-61
2022/06/27 03:21:20;;;;;;;6.25;4.67;;;;;;;19.90;62.82;98624.90;1689853;84;25708;-61
2022/06/27 03:23:49;;;;;;;6.33;5.15;;;;;;;19.97;62.80;98626.95;1689890;83;25499;-61
2022/06/27 03:26:18;;;;;;;5.35;4.85;;;;;;;20.03;63.03;98631.03;1689925;84;28247;-61
2022/06/27 03:28:45;;;;;;;6.47;4.95;;;;;;;20.08;62.66;98627.11;1690029;84;25615;-60
2022/06/27 03:31:12;;;;;;;7.40;5.00;;;;;;;20.20;62.46;98626.66;1690207;84;25672;-59
2022/06/27 03:33:39;;;;;;;6.53;5.47;;;;;;;20.29;62.63;98632.70;1689922;84;26579;-59
2022/06/27 03:36:06;;;;;;;6.12;5.53;;;;;;;20.34;62.48;98629.59;1690123;84;25416;-60
2022/06/27 03:38:33;;;;;;;6.17;4.97;;;;;;;20.38;62.49;98629.03;1689914;84;27620;-60
2022/06/27 03:41:00;;;;;;;6.47;5.40;;;;;;;20.51;62.26;98633.75;1689698;84;25504;-60
2022/06/27 03:43:27;;;;;;;6.72;5.10;;;;;;;20.55;62.09;98635.16;1689952;84;25642;-59
2022/06/27 03:45:55;;;;;;;6.47;5.53;;;;;;;20.55;62.09;98633.19;1689603;84;27120;-59
2022/06/27 03:51:05;;;;;;;7.40;5.30;;;;;;;20.58;62.46;98634.39;1689604;84;25603;-59
2022/06/27 03:53:32;;;;;;;7.35;5.62;;;;;;;20.62;62.11;98638.03;1689611;84;26257;-60
2022/06/27 03:55:58;;;;;;;8.68;5.72;;;;;;;20.67;61.98;98638.28;1689945;84;25684;-59
2022/06/27 03:58:24;;;;;;;5.72;5.10;;;;;;;20.79;61.72;98639.98;1690283;84;25745;-59
2022/06/27 04:00:50;;;;;;;7.85;5.40;;;;;;;20.86;61.51;98642.02;1689975;84;26052;-61
2022/06/27 04:03:16;;;;;;;5.75;5.15;;;;;;;20.95;61.39;98641.74;1689850;84;27502;-61
2022/06/27 04:05:42;;;;;;;6.80;5.35;;;;;;;21.05;61.13;98643.23;1689739;84;25749;-60
2022/06/27 04:08:08;;;;;;;8.78;5.10;;;;;;;21.23;61.01;98643.95;1689871;84;25595;-59
2022/06/27 04:10:35;;;;;;;8.33;5.37;;;;;;;21.40;60.45;98645.27;1690083;84;25698;-59
2022/06/27 04:13:01;;;;;;;8.93;5.37;;;;;;;21.50;60.46;98647.13;1690003;84;25431;-60
2022/06/27 04:15:27;;;;;;;6.95;5.08;;;;;;;21.58;60.30;98635.42;1690115;84;27465;-59
2022/06/27 04:17:53;;;;;;;5.72;5.15;;;;;;;21.60;59.89;98640.00;1690057;84;25464;-60
2022/06/27 04:20:20;;;;;;;6.97;4.90;;;;;;;21.58;59.85;98634.81;1690120;84;25690;-61
2022/06/27 04:22:46;;;;;;;8.65;5.30;;;;;;;21.49;59.83;98644.11;1689961;84;25764;-61
2022/06/27 04:25:12;;;;;;;9.63;5.97;;;;;;;21.35;60.26;98644.81;1689888;84;25446;-60
2022/06/27 04:27:39;;;;;;;5.78;5.17;;;;;;;21.37;60.15;98641.86;1690196;84;27420;-61
2022/06/27 04:30:09;;;;;;;7.03;5.35;;;;;;;21.50;60.12;98649.91;1689824;84;25681;-61
2022/06/27 04:32:35;;;;;;;7.33;5.12;;;;;;;21.62;60.22;98650.95;1689677;84;25634;-61
2022/06/27 04:35:01;;;;;;;6.78;5.10;;;;;;;21.85;59.59;98653.31;1689877;84;25459;-61
2022/06/27 04:37:27;;;;;;;7.30;4.87;;;;;;;21.99;59.22;98645.62;1689889;84;25581;-61
2022/06/27 04:39:54;;;;;;;7.33;5.45;;;;;;;21.85;59.71;98656.92;1690053;84;27370;-61
2022/06/27 04:42:23;;;;;;;6.72;5.28;;;;;;;21.77;59.91;98658.87;1689749;84;25617;-60
2022/06/27 04:44:47;;;;;;;6.87;5.40;;;;;;;21.83;59.91;98657.08;1689716;84;25556;-61
2022/06/27 04:47:15;;;;;;;8.95;5.92;;;;;;;21.94;60.24;98660.13;1689991;84;25760;-60
2022/06/27 04:49:42;;;;;;;7.25;5.83;;;;;;;22.04;59.67;98659.17;1689942;84;25403;-61
2022/06/27 04:52:08;;;;;;;8.85;5.65;;;;;;;22.09;59.55;98658.81;1689587;84;27454;-61
2022/06/27 04:54:36;;;;;;;6.08;5.28;;;;;;;22.22;59.37;98664.83;1689554;84;25682;-61
2022/06/27 04:57:04;;;;;;;8.68;5.50;;;;;;;22.29;59.47;98659.87;1689647;84;26311;-61
2022/06/27 04:59:31;;;;;;;7.12;5.42;;;;;;;22.39;58.94;98660.50;1689759;84;25715;-61
2022/06/27 05:01:57;;;;;;;7.05;5.90;;;;;;;22.39;59.20;98663.29;1689833;84;25442;-61
2022/06/27 05:04:23;;;;;;;8.75;5.65;;;;;;;22.54;59.08;98659.94;1689890;84;27370;-61
2022/06/27 05:06:51;;;;;;;8.15;5.90;;;;;;;22.69;58.85;98655.20;1689809;84;25646;-61
2022/06/27 05:09:17;;;;;;;6.55;5.60;;;;;;;22.92;58.54;98658.25;1689610;84;25437;-61
2022/06/27 05:11:52;;;;;;;6.62;5.83;;;;;;;23.12;58.26;98658.44;1690085;84;25763;-60
2022/06/27 05:14:14;;;;;;;8.30;6.00;;;;;;;23.40;58.11;98661.06;1689611;84;25670;-60
2022/06/27 05:16:40;;;;;;;6.42;5.75;;;;;;;23.63;57.35;98663.39;1690092;84;27454;-60
2022/06/27 05:19:06;;;;;;;7.45;5.87;;;;;;;23.78;56.70;98665.55;1689853;84;25696;-59
2022/06/27 05:21:32;;;;;;;6.75;6.00;;;;;;;23.91;56.39;98656.73;1689968;84;25428;-62
2022/06/27 05:23:58;;;;;;;7.72;6.22;;;;;;;24.04;56.10;98666.27;1689855;84;25789;-61
2022/06/27 05:26:24;;;;;;;7.47;5.85;;;;;;;24.23;56.47;98667.65;1689991;84;25690;-60
2022/06/27 05:28:52;;;;;;;11.75;6.28;;;;;;;24.52;56.07;98669.68;1689880;84;27488;-60
2022/06/27 05:31:19;;;;;;;8.88;5.87;;;;;;;24.56;55.19;98667.65;1689689;84;25443;-60
2022/06/27 05:33:45;;;;;;;6.78;5.60;;;;;;;24.65;55.27;98667.81;1689791;84;25657;-60
2022/06/27 05:36:11;;;;;;;7.25;6.00;;;;;;;24.74;54.43;98673.77;1689912;84;26787;-60
2022/06/27 05:38:39;;;;;;;10.32;6.50;;;;;;;24.84;54.90;98672.08;1689577;84;25420;-60
2022/06/27 05:41:07;;;;;;;11.08;6.00;;;;;;;24.99;54.24;98675.63;1689781;84;27653;-60
2022/06/27 05:43:33;;;;;;;8.03;5.42;;;;;;;25.04;54.05;98672.37;1689548;84;25615;-61
2022/06/27 05:46:00;;;;;;;7.22;5.62;;;;;;;25.19;54.43;98672.27;1689745;84;25551;-61
2022/06/27 05:48:27;;;;;;;7.33;5.62;;;;;;;25.40;53.10;98674.67;1689773;84;25952;-61
2022/06/27 05:50:53;;;;;;;9.20;5.80;;;;;;;25.45;52.70;98674.23;1689694;84;25427;-61
2022/06/27 05:53:20;;;;;;;8.73;5.70;;;;;;;25.44;52.83;98678.23;1689925;84;28205;-61
2022/06/27 05:55:48;;;;;;;11.65;5.92;;;;;;;25.61;52.99;98675.09;1689422;84;25750;-60
2022/06/27 05:58:16;;;;;;;10.23;6.25;;;;;;;25.82;52.33;98671.89;1689604;84;25489;-61
2022/06/27 06:00:43;;;;;;;9.33;5.85;;;;;;;25.84;52.93;98678.48;1689774;84;25732;-61
2022/06/27 06:03:09;;;;;;;9.48;5.83;;;;;;;26.12;52.32;98675.14;1689813;84;25689;-60
2022/06/27 06:05:37;;;;;;;8.05;5.95;;;;;;;26.33;51.30;98678.94;1689571;84;28034;-60
2022/06/27 06:08:06;;;;;;;9.38;6.10;;;;;;;26.44;51.81;98676.77;1689492;84;25472;-60
2022/06/27 06:10:33;;;;;;;7.60;6.00;;;;;;;26.68;51.65;98683.25;1689900;84;25610;-61
2022/06/27 06:13:04;;;;;;;7.72;5.85;;;;;;;26.78;50.71;98690.55;1689871;84;26600;-61
2022/06/27 06:15:32;;;;;;;7.20;5.75;;;;;;;26.72;50.85;98689.44;1689651;84;25477;-59
2022/06/27 06:18:03;;;;;;;6.37;5.50;;;;;;;26.52;50.32;98694.33;1689608;84;27246;-59
2022/06/27 06:20:32;;;;;;;6.90;5.70;;;;;;;26.51;50.93;98693.52;1695561;84;25610;-61
2022/06/27 06:23:00;;;;;;;6.22;5.58;;;;;;;26.63;50.65;98689.37;1696118;84;25617;-60
2022/06/27 06:25:28;;;;;;;7.62;5.90;;;;;;;26.83;50.73;98690.09;1696262;84;25661;-60
2022/06/27 06:27:56;;;;;;;8.35;5.75;;;;;;;26.91;49.90;98685.92;1696352;84;25666;-60
2022/06/27 06:30:24;;;;;;;9.50;6.62;;;;;;;27.10;49.81;98691.30;1670735;84;25796;-60
2022/06/27 06:32:51;;;;;;;9.55;6.03;;;;;;;27.38;49.46;98690.04;1696159;84;25671;-60
2022/06/27 06:35:18;;;;;;;7.15;6.00;;;;;;;27.64;49.30;98695.21;1696275;84;25574;-60
2022/06/27 06:37:45;;;;;;;8.80;5.50;;;;;;;27.81;48.28;98693.33;1695955;84;25951;-60
2022/06/27 06:40:15;;;;;;;7.25;5.55;;;;;;;27.98;48.31;98689.98;1696370;84;25617;-60
2022/06/27 06:42:41;;;;;;;12.07;5.60;;;;;;;28.14;47.41;98687.84;1696119;84;26995;-59
2022/06/27 06:45:10;;;;;;;6.72;5.25;;;;;;;28.32;47.81;98693.73;1696403;84;25659;-60
2022/06/27 06:47:46;;;;;;;9.25;5.70;;;;;;;28.53;47.39;98693.11;1696309;84;25682;-60
2022/06/27 06:50:19;;;;;;;6.67;5.17;;;;;;;28.67;46.84;98692.00;1695969;84;26723;-60
2022/06/27 06:52:50;;;;;;;7.22;4.95;;;;;;;28.89;46.73;98692.28;1696158;84;25642;-60
2022/06/27 06:55:21;;;;;;;8.80;5.10;;;;;;;28.85;45.89;98686.55;1696400;84;28168;-60
2022/06/27 06:57:47;;;;;;;;;;;;;;;28.95;45.40;98686.93;1698503;84;25669;-60
2022/06/27 07:00:15;;;;;;;7.17;5.28;;;;;;;28.83;45.73;98686.18;1696462;84;25602;-60
2022/06/27 07:02:43;;;;;;;5.95;5.17;;;;;;;28.86;45.43;98685.30;1696457;84;25736;-60
2022/06/27 07:05:11;;;;;;;8.83;5.72;;;;;;;29.08;45.30;98684.22;1696205;84;25676;-60
2022/06/27 07:07:41;;;;;;;8.88;5.15;;;;;;;28.99;44.96;98679.80;1692695;84;27502;-59
2022/06/27 07:10:10;;;;;;;5.50;4.85;;;;;;;29.22;44.90;98683.68;1682209;84;25866;-58
2022/06/27 07:12:38;;;;;;;6.97;5.12;;;;;;;29.41;44.43;98679.16;1679063;84;25784;-58
2022/06/27 07:15:12;;;;;;;6.37;5.33;;;;;;;29.66;44.04;98681.36;1686683;85;25864;-58
2022/06/27 07:17:51;;;;;;;5.40;4.90;;;;;;;29.86;44.09;98679.00;1683943;84;25477;-58
2022/06/27 07:20:19;;;;;;;5.42;4.92;;;;;;;30.13;43.20;98682.08;1675348;84;26084;-58
2022/06/27 07:22:47;;;;;;;5.37;4.72;;;;;;;30.29;42.64;98678.42;1672109;85;25690;-58
2022/06/27 07:25:14;;;;;;;6.05;4.80;;;;;;;30.55;42.89;98677.66;1672519;85;25685;-58
2022/06/27 07:27:44;;;;;;;6.72;4.78;;;;;;;30.76;42.61;98679.62;1672404;84;25729;-58
2022/06/27 07:30:11;;;;;;;5.80;5.20;;;;;;;31.00;42.92;98679.32;1688240;84;25704;-58
2022/06/27 07:32:40;;;;;;;7.08;5.22;;;;;;;31.07;41.05;98669.79;1680069;84;27453;-58
2022/06/27 07:35:12;;;;;;;5.53;4.97;;;;;;;31.27;42.03;98673.16;1672654;85;25715;-58
2022/06/27 07:37:48;;;;;;;8.85;4.90;;;;;;;31.37;40.44;98676.11;1672596;85;25533;-57
2022/06/27 07:40:18;;;;;;;8.05;4.72;;;;;;;31.37;41.84;98677.53;1671947;85;25619;-58
2022/06/27 07:42:47;;;;;;;5.37;4.87;;;;;;;31.74;40.82;98678.45;1672467;85;25587;-58
2022/06/27 07:45:15;;;;;;;11.03;4.50;;;;;;;31.90;40.05;98683.96;1672822;85;27410;-57
2022/06/27 07:47:43;;;;;;;5.28;4.55;;;;;;;32.13;39.59;98685.39;1672195;85;25611;-58
2022/06/27 07:50:11;;;;;;;5.87;5.10;;;;;;;32.42;39.46;98680.85;1672417;85;25790;-58
2022/06/27 07:55:24;;;;;;;5.67;4.55;;;;;;;32.98;38.55;98681.72;1672246;85;25478;-58
2022/06/27 07:57:55;;;;;;;5.28;4.72;;;;;;;33.08;38.12;98678.31;1672201;85;27412;-58
2022/06/27 08:00:21;;;;;;;6.67;4.10;;;;;;;33.16;37.59;98675.97;1672139;85;25910;-58
2022/06/27 08:02:48;;;;;;;6.62;4.35;;;;;;;33.39;37.07;98682.31;1674073;84;25675;-58
2022/06/27 08:05:14;;;;;;;6.90;4.60;;;;;;;33.57;36.95;98682.16;1687117;84;25701;-58
2022/06/27 08:07:41;;;;;;;7.03;4.05;;;;;;;33.47;35.44;98679.31;1672461;85;25719;-59
2022/06/27 08:10:09;;;;;;;5.67;4.40;;;;;;;33.37;36.51;98671.43;1672333;85;27648;-59
2022/06/27 08:12:35;;;;;;;5.62;4.53;;;;;;;33.54;37.04;98668.28;1672348;85;25762;-59
2022/06/27 08:15:04;;;;;;;5.10;4.30;;;;;;;33.58;35.26;98675.23;1672297;85;25670;-58
2022/06/27 08:17:30;;;;;;;4.28;3.80;;;;;;;33.31;35.60;98673.31;1672432;85;26548;-58
2022/06/27 08:19:58;;;;;;;4.08;3.62;;;;;;;33.25;35.60;98675.19;1672197;84;25715;-59
2022/06/27 08:22:25;;;;;;;4.53;3.35;;;;;;;33.50;34.61;98679.02;1672147;85;27634;-59
2022/06/27 08:24:52;;;;;;;6.00;3.72;;;;;;;33.80;35.02;98682.20;1672099;85;26280;-59
2022/06/27 08:27:20;;;;;;;4.47;3.00;;;;;;;34.12;35.38;98689.11;1672191;85;25505;-59
2022/06/27 08:29:46;;;;;;;3.27;2.98;;;;;;;34.32;33.70;98687.83;1672323;85;25996;-58
2022/06/27 08:32:13;;;;;;;3.62;3.10;;;;;;;34.35;33.31;98687.67;1672277;85;25703;-58
2022/06/27 08:34:40;;;;;;;4.58;3.30;;;;;;;34.48;33.38;98686.03;1672341;84;27646;-58
2022/06/27 08:37:08;;;;;;;4.08;3.52;;;;;;;34.63;33.14;98686.16;1672113;85;25927;-58
2022/06/27 08:39:34;;;;;;;4.95;2.95;;;;;;;34.97;33.98;98686.83;1672340;85;25434;-58
2022/06/27 08:42:01;;;;;;;3.22;2.52;;;;;;;35.21;32.39;98690.34;1672454;85;25750;-57
2022/06/27 08:44:29;;;;;;;3.20;2.75;;;;;;;35.40;31.27;98691.03;1672398;85;25687;-57
2022/06/27 08:46:56;;;;;;;4.20;3.20;;;;;;;35.52;32.18;98689.97;1672071;85;27500;-57
2022/06/27 08:49:23;;;;;;;3.47;2.90;;;;;;;35.74;31.39;98688.88;1672059;85;25498;-57
2022/06/27 08:51:50;;;;;;;4.72;3.20;;;;;;;35.93;31.32;98683.02;1672336;85;25485;-58
2022/06/27 08:54:17;;;;;;;4.55;2.80;;;;;;;36.04;31.04;98686.72;1672311;85;25957;-58
2022/06/27 08:56:44;;;;;;;3.90;2.67;;;;;;;36.12;30.73;98679.33;1672366;85;25670;-58
2022/06/27 08:59:10;;;;;;;4.95;2.70;;;;;;;36.46;30.59;98676.96;1672225;85;27657;-58
2022/06/27 09:01:37;;;;;;;4.35;2.70;;;;;;;36.72;30.18;98684.92;1672396;85;25490;-58
2022/06/27 09:04:10;;;;;;;3.25;2.70;;;;;;;36.90;29.61;98686.09;1672237;85;25668;-58
2022/06/27 09:06:50;;;;;;;4.20;2.77;;;;;;;36.84;29.38;98685.88;1672093;85;25963;-58
2022/06/27 09:09:17;;;;;;;4.35;2.80;;;;;;;36.85;29.11;98681.09;1672329;85;25668;-59
2022/06/27 09:11:46;;;;;;;5.53;2.83;;;;;;;37.07;28.70;98683.34;1672369;85;27635;-59
2022/06/27 09:14:35;;;;;;;;;;;;;;;37.10;28.40;98685.20;1675118;85;25473;-59
2022/06/27 09:17:04;;;;;;;3.83;2.65;;;;;;;37.07;28.42;98685.53;1672645;85;25783;-59
2022/06/27 09:19:54;;;;;;;4.53;2.72;;;;;;;37.30;29.02;98688.75;1673580;85;25854;-58
2022/06/27 09:22:25;;;;;;;4.60;2.85;;;;;;;37.49;27.63;98683.52;1673126;85;25527;-59
2022/06/27 09:25:09;;;;;;;2.92;2.47;;;;;;;37.43;28.95;98682.67;1687385;85;27586;-59
2022/06/27 09:27:47;;;;;;;3.05;2.40;;;;;;;37.68;29.32;98686.72;1672818;85;43277;-59
2022/06/27 09:30:24;;;;;;;2.72;2.15;;;;;;;38.14;27.10;98680.20;1687253;85;25496;-59
2022/06/27 09:32:54;;;;;;;3.17;2.30;;;;;;;38.37;26.95;98679.02;1673145;85;25866;-58
2022/06/27 09:35:39;;;;;;;2.40;2.17;;;;;;;38.83;25.79;98685.75;1687427;85;25622;-59
2022/06/27 09:38:07;;;;;;;3.65;2.40;;;;;;;38.98;25.24;98679.20;1672689;85;26011;-58
2022/06/27 09:40:38;;;;;;;4.05;2.65;;;;;;;38.86;26.37;98684.09;1687244;85;25472;-58
2022/06/27 09:43:08;;;;;;;3.58;2.33;;;;;;;39.04;26.34;98682.09;1673136;85;25739;-58
2022/06/27 09:45:37;;;;;;;4.20;2.15;;;;;;;39.21;25.94;98681.43;1687368;85;26464;-57
2022/06/27 09:48:06;;;;;;;2.22;2.02;;;;;;;39.22;25.73;98677.25;1672924;85;25611;-58
2022/06/27 09:50:39;;;;;;;5.33;2.20;;;;;;;38.79;25.70;98681.68;1687356;85;28266;-58
2022/06/27 09:53:06;;;;;;;2.65;2.10;;;;;;;39.00;25.32;98671.53;1672577;85;25515;-58
2022/06/27 09:55:33;;;;;;;3.42;2.30;;;;;;;38.84;25.19;98670.13;1687029;85;25666;-58
2022/06/27 09:58:01;;;;;;;5.28;2.35;;;;;;;38.91;24.71;98673.97;1673053;85;25770;-58
2022/06/27 10:00:28;;;;;;;2.40;2.20;;;;;;;38.81;24.48;98676.23;1687287;85;25716;-58
2022/06/27 10:02:57;;;;;;;3.37;2.22;;;;;;;39.13;25.84;98670.45;1672854;85;28087;-58
2022/06/27 10:05:24;;;;;;;2.95;2.20;;;;;;;39.15;25.57;98667.87;1687250;85;25485;-58
2022/06/27 10:07:59;;;;;;;2.65;2.02;;;;;;;39.09;25.53;98668.46;1673095;85;25667;-59
2022/06/27 10:10:31;;;;;;;3.20;2.15;;;;;;;39.08;24.96;98668.98;1687491;85;25930;-58
2022/06/27 10:13:02;;;;;;;3.90;2.42;;;;;;;39.25;25.23;98668.42;1673305;85;25684;-58
2022/06/27 10:15:33;;;;;;;6.05;2.72;;;;;;;39.55;24.10;98667.25;1687318;85;27393;-58
2022/06/27 10:18:05;;;;;;;3.77;2.20;;;;;;;39.62;24.02;98667.41;1672295;85;25496;-58
2022/06/27 10:20:36;;;;;;;2.98;2.15;;;;;;;39.94;24.31;98658.61;1678783;84;25759;-58
2022/06/27 10:23:26;;;;;;;2.40;1.95;;;;;;;40.00;24.66;98657.21;1623846;88;25693;-58
2022/06/27 10:25:48;;;;;;;3.52;1.90;;;;;;;39.54;23.52;98657.06;1665474;85;25462;-58
2022/06/27 10:28:18;;;;;;;6.50;2.05;;;;;;;39.78;23.58;98655.20;1623883;88;27606;-58
2022/06/27 10:30:59;;;;;;;3.27;1.90;;;;;;;40.20;23.83;98653.32;1665762;86;25462;-58
2022/06/27 10:33:31;;;;;;;2.83;1.65;;;;;;;40.36;22.16;98650.97;1624020;88;25653;-58
2022/06/27 10:36:11;;;;;;;8.23;2.95;;;;;;;40.15;22.79;98651.25;1665802;86;25829;-58
2022/06/27 10:38:48;;;;;;;3.77;2.20;;;;;;;40.37;22.93;98641.05;1601931;88;25496;-58
2022/06/27 10:41:23;;;;;;;2.55;2.02;;;;;;;40.43;22.39;98650.44;1664828;86;27972;-58
2022/06/27 10:43:59;;;;;;;3.58;2.00;;;;;;;40.63;21.73;98649.41;1623960;88;25543;-58
2022/06/27 10:46:29;;;;;;;3.12;1.90;;;;;;;40.87;21.80;98641.53;1665439;86;25452;-58
2022/06/27 10:48:58;;;;;;;2.87;2.00;;;;;;;41.16;21.87;98635.06;1624155;88;25729;-58
2022/06/27 10:51:31;;;;;;;3.17;1.82;;;;;;;41.36;22.02;98642.53;1665981;86;25782;-58
2022/06/27 10:54:11;;;;;;;4.10;1.90;;;;;;;41.41;20.96;98640.97;1623761;88;28360;-58
2022/06/27 10:56:53;;;;;;;4.45;2.25;;;;;;;41.55;21.28;98644.83;1665621;86;25435;-58
2022/06/27 10:59:26;;;;;;;3.45;2.40;;;;;;;41.27;21.46;98636.44;1624037;88;25525;-58
2022/06/27 11:01:58;;;;;;;2.20;1.90;;;;;;;41.38;21.19;98632.77;1665848;86;26470;-58
2022/06/27 11:04:30;;;;;;;2.92;2.20;;;;;;;40.72;20.73;98633.98;1652477;86;25453;-58
2022/06/27 11:07:01;;;;;;;3.67;1.70;;;;;;;40.38;21.48;98631.91;1652518;86;27381;-58
2022/06/27 11:09:48;;;;;;;4.45;2.55;;;;;;;40.42;21.84;98623.69;1652523;86;25610;-58
2022/06/27 11:12:18;;;;;;;3.58;2.27;;;;;;;40.81;21.88;98619.22;1680280;85;25619;-58
2022/06/27 11:14:52;;;;;;;3.95;2.30;;;;;;;40.78;21.76;98618.19;1680469;85;25685;-58
2022/06/27 11:17:42;;;;;;;2.98;2.50;;;;;;;40.98;21.20;98617.09;1679670;85;25445;-57
2022/06/27 11:20:16;;;;;;;2.80;2.40;;;;;;;41.21;22.06;98609.81;1678853;84;27494;-57
2022/06/27 11:22:46;;;;;;;6.03;2.17;;;;;;;41.44;21.41;98603.97;1669507;85;25817;-58
2022/06/27 11:25:13;;;;;;;2.67;2.12;;;;;;;41.68;21.36;98603.19;1670607;85;25760;-57
2022/06/27 11:27:53;;;;;;;3.15;2.30;;;;;;;41.89;21.77;98601.49;1670352;85;25618;-57
2022/06/27 11:33:21;;;;;;;2.40;2.20;;;;;;;40.88;21.00;98603.66;1670444;85;25733;-57
2022/06/27 11:35:49;;;;;;;7.87;2.33;;;;;;;40.90;21.31;98601.03;1670436;85;25684;-58
2022/06/27 11:38:28;;;;;;;2.30;2.10;;;;;;;41.07;22.20;98598.77;1670921;85;25628;-57
2022/06/27 11:41:07;;;;;;;3.90;2.33;;;;;;;41.25;21.16;98603.80;1670472;85;25693;-57
2022/06/27 11:44:07;;;;;;;;;;;;;;;41.33;22.78;98593.95;1673004;85;25497;-58
2022/06/27 11:46:45;;;;;;;3.85;2.60;;;;;;;41.25;21.95;98587.98;1670408;85;27516;-58
2022/06/27 11:49:16;;;;;;;2.65;2.45;;;;;;;41.53;21.33;98587.73;1653412;85;25643;-59
2022/06/27 11:51:50;;;;;;;2.87;2.60;;;;;;;41.43;21.28;98584.37;1639723;87;25695;-57